sensor_id;sensor_type;location;lat;lon;timestamp;temperature;humidity
7622;DHT22;3852;52.284;8.032;2022-11-15T00:00:51;9.80;99.90
7622;DHT22;3852;52.284;8.032;2022-11-15T00:03:20;10.00;99.90
7622;DHT22;3852;52.284;8.032;2022-11-15T00:05:47;10.10;99.90
7622;DHT22;3852;52.284;8.032;2022-11-15T00:08:13;10.20;99.90
7622;DHT22;3852;52.284;8.032;2022-11-15T00:10:39;10.10;99.90
7622;DHT22;3852;52.284;8.032;2022-11-15T00:13:14;10.10;99.90
7622;DHT22;3852;52.284;8.032;2022-11-15T00:15:40;10.20;99.90
7622;DHT22;3852;52.284;8.032;2022-11-15T00:18:12;10.10;99.90
7622;DHT22;3852;52.284;8.032;2022-11-15T00:20:39;10.10;99.90
7622;DHT22;3852;52.284;8.032;2022-11-15T00:23:05;10.20;99.90
7622;DHT22;3852;52.284;8.032;2022-11-15T00:25:31;10.20;99.90
7622;DHT22;3852;52.284;8.032;2022-11-15T00:27:58;10.20;99.90
7622;DHT22;3852;52.284;8.032;2022-11-15T00:30:24;10.30;99.90
7622;DHT22;3852;52.284;8.032;2022-11-15T00:32:51;10.30;99.90
7622;DHT22;3852;52.284;8.032;2022-11-15T00:35:17;10.20;99.90
7622;DHT22;3852;52.284;8.032;2022-11-15T00:37:43;10.20;99.90
7622;DHT22;3852;52.284;8.032;2022-11-15T00:40:09;10.20;99.90
7622;DHT22;3852;52.284;8.032;2022-11-15T00:42:36;10.40;99.90
7622;DHT22;3852;52.284;8.032;2022-11-15T00:45:02;10.30;99.90
7622;DHT22;3852;52.284;8.032;2022-11-15T00:47:28;10.30;99.90
7622;DHT22;3852;52.284;8.032;2022-11-15T00:49:53;10.30;99.90
7622;DHT22;3852;52.284;8.032;2022-11-15T00:52:19;10.30;99.90
7622;DHT22;3852;52.284;8.032;2022-11-15T00:54:45;10.40;99.90
7622;DHT22;3852;52.284;8.032;2022-11-15T00:57:11;10.50;99.90
7622;DHT22;3852;52.284;8.032;2022-11-15T00:59:40;10.50;99.90
7622;DHT22;3852;52.284;8.032;2022-11-15T01:02:06;10.60;99.90
7622;DHT22;3852;52.284;8.032;2022-11-15T01:04:31;10.50;99.90
7622;DHT22;3852;52.284;8.032;2022-11-15T01:06:57;10.50;99.90
7622;DHT22;3852;52.284;8.032;2022-11-15T01:09:23;10.40;99.90
7622;DHT22;3852;52.284;8.032;2022-11-15T01:11:49;10.70;99.90
7622;DHT22;3852;52.284;8.032;2022-11-15T01:14:15;10.60;99.90
7622;DHT22;3852;52.284;8.032;2022-11-15T01:16:41;10.60;99.90
7622;DHT22;3852;52.284;8.032;2022-11-15T01:19:07;10.60;99.90
7622;DHT22;3852;52.284;8.032;2022-11-15T01:21:32;10.50;99.90
7622;DHT22;3852;52.284;8.032;2022-11-15T01:24:00;10.70;99.90
7622;DHT22;3852;52.284;8.032;2022-11-15T01:26:26;10.60;99.90
7622;DHT22;3852;52.284;8.032;2022-11-15T01:28:52;10.60;99.90
7622;DHT22;3852;52.284;8.032;2022-11-15T01:31:19;10.80;99.90
7622;DHT22;3852;52.284;8.032;2022-11-15T01:33:46;10.60;99.90
7622;DHT22;3852;52.284;8.032;2022-11-15T01:36:16;10.80;99.90
7622;DHT22;3852;52.284;8.032;2022-11-15T01:38:43;10.90;99.90
7622;DHT22;3852;52.284;8.032;2022-11-15T01:41:19;10.90;99.90
7622;DHT22;3852;52.284;8.032;2022-11-15T01:43:53;10.90;99.90
7622;DHT22;3852;52.284;8.032;2022-11-15T01:46:36;11.00;99.90
7622;DHT22;3852;52.284;8.032;2022-11-15T01:49:13;11.10;99.90
7622;DHT22;3852;52.284;8.032;2022-11-15T01:51:41;11.10;99.90
7622;DHT22;3852;52.284;8.032;2022-11-15T01:54:11;11.10;99.90
7622;DHT22;3852;52.284;8.032;2022-11-15T01:57:06;11.10;99.90
7622;DHT22;3852;52.284;8.032;2022-11-15T01:59:35;11.10;99.90
7622;DHT22;3852;52.284;8.032;2022-11-15T02:02:03;11.00;99.90
7622;DHT22;3852;52.284;8.032;2022-11-15T02:04:32;11.00;99.90
7622;DHT22;3852;52.284;8.032;2022-11-15T02:07:04;11.10;99.90
7622;DHT22;3852;52.284;8.032;2022-11-15T02:09:30;11.00;99.90
7622;DHT22;3852;52.284;8.032;2022-11-15T02:11:56;11.10;99.90
7622;DHT22;3852;52.284;8.032;2022-11-15T02:14:27;11.00;99.90
7622;DHT22;3852;52.284;8.032;2022-11-15T02:22:51;11.20;99.90
7622;DHT22;3852;52.284;8.032;2022-11-15T02:29:08;11.10;99.90
7622;DHT22;3852;52.284;8.032;2022-11-15T02:31:40;11.20;99.90
7622;DHT22;3852;52.284;8.032;2022-11-15T02:34:42;11.30;99.90
7622;DHT22;3852;52.284;8.032;2022-11-15T02:37:32;11.30;99.90
7622;DHT22;3852;52.284;8.032;2022-11-15T02:43:21;11.30;99.90
7622;DHT22;3852;52.284;8.032;2022-11-15T02:49:48;11.30;99.90
7622;DHT22;3852;52.284;8.032;2022-11-15T02:52:19;11.40;99.90
7622;DHT22;3852;52.284;8.032;2022-11-15T02:55:29;11.30;99.90
7622;DHT22;3852;52.284;8.032;2022-11-15T02:58:32;11.30;99.90
7622;DHT22;3852;52.284;8.032;2022-11-15T03:04:56;11.50;99.90
7622;DHT22;3852;52.284;8.032;2022-11-15T03:07:31;11.50;99.90
7622;DHT22;3852;52.284;8.032;2022-11-15T03:10:14;11.50;99.90
7622;DHT22;3852;52.284;8.032;2022-11-15T03:13:32;11.50;99.90
7622;DHT22;3852;52.284;8.032;2022-11-15T03:16:09;11.70;99.90
7622;DHT22;3852;52.284;8.032;2022-11-15T03:18:49;11.70;99.90
7622;DHT22;3852;52.284;8.032;2022-11-15T03:21:21;11.70;99.90
7622;DHT22;3852;52.284;8.032;2022-11-15T03:23:48;11.70;99.90
7622;DHT22;3852;52.284;8.032;2022-11-15T03:26:16;11.70;99.90
7622;DHT22;3852;52.284;8.032;2022-11-15T03:28:54;11.60;99.90
7622;DHT22;3852;52.284;8.032;2022-11-15T03:31:23;11.70;99.90
7622;DHT22;3852;52.284;8.032;2022-11-15T03:36:55;11.70;99.90
7622;DHT22;3852;52.284;8.032;2022-11-15T03:39:21;11.80;99.90
7622;DHT22;3852;52.284;8.032;2022-11-15T03:44:57;11.90;99.90
7622;DHT22;3852;52.284;8.032;2022-11-15T03:47:38;12.00;99.90
7622;DHT22;3852;52.284;8.032;2022-11-15T03:50:10;12.00;99.90
7622;DHT22;3852;52.284;8.032;2022-11-15T03:52:39;11.90;99.90
7622;DHT22;3852;52.284;8.032;2022-11-15T03:55:10;11.90;99.90
7622;DHT22;3852;52.284;8.032;2022-11-15T03:57:38;11.90;99.90
7622;DHT22;3852;52.284;8.032;2022-11-15T04:00:05;11.90;99.90
7622;DHT22;3852;52.284;8.032;2022-11-15T04:02:31;12.00;99.90
7622;DHT22;3852;52.284;8.032;2022-11-15T04:04:57;12.10;99.90
7622;DHT22;3852;52.284;8.032;2022-11-15T04:07:23;12.10;99.90
7622;DHT22;3852;52.284;8.032;2022-11-15T04:09:48;12.20;99.90
7622;DHT22;3852;52.284;8.032;2022-11-15T04:12:34;12.20;99.90
7622;DHT22;3852;52.284;8.032;2022-11-15T04:15:03;12.10;99.90
7622;DHT22;3852;52.284;8.032;2022-11-15T04:17:42;12.20;99.90
7622;DHT22;3852;52.284;8.032;2022-11-15T04:20:21;12.20;99.90
7622;DHT22;3852;52.284;8.032;2022-11-15T04:23:12;12.20;99.90
7622;DHT22;3852;52.284;8.032;2022-11-15T04:26:05;12.20;99.90
7622;DHT22;3852;52.284;8.032;2022-11-15T04:28:35;12.10;99.90
7622;DHT22;3852;52.284;8.032;2022-11-15T04:31:22;12.20;99.90
7622;DHT22;3852;52.284;8.032;2022-11-15T04:33:48;12.30;99.90
7622;DHT22;3852;52.284;8.032;2022-11-15T04:36:14;12.30;99.90
7622;DHT22;3852;52.284;8.032;2022-11-15T04:38:58;12.30;99.90
7622;DHT22;3852;52.284;8.032;2022-11-15T04:41:24;12.30;99.90
7622;DHT22;3852;52.284;8.032;2022-11-15T04:43:50;12.30;99.90
7622;DHT22;3852;52.284;8.032;2022-11-15T04:46:16;12.30;99.90
7622;DHT22;3852;52.284;8.032;2022-11-15T04:48:41;12.30;99.90
7622;DHT22;3852;52.284;8.032;2022-11-15T04:51:07;12.40;99.90
7622;DHT22;3852;52.284;8.032;2022-11-15T04:53:33;12.40;99.90
7622;DHT22;3852;52.284;8.032;2022-11-15T04:55:59;12.40;99.90
7622;DHT22;3852;52.284;8.032;2022-11-15T04:58:25;12.40;99.90
7622;DHT22;3852;52.284;8.032;2022-11-15T05:00:50;12.40;99.90
7622;DHT22;3852;52.284;8.032;2022-11-15T05:03:16;12.40;99.90
7622;DHT22;3852;52.284;8.032;2022-11-15T05:06:00;12.50;99.90
7622;DHT22;3852;52.284;8.032;2022-11-15T05:08:26;12.50;99.90
7622;DHT22;3852;52.284;8.032;2022-11-15T05:10:52;12.50;99.90
7622;DHT22;3852;52.284;8.032;2022-11-15T05:13:18;12.50;99.90
7622;DHT22;3852;52.284;8.032;2022-11-15T05:15:44;12.50;99.90
7622;DHT22;3852;52.284;8.032;2022-11-15T05:18:10;12.60;99.90
7622;DHT22;3852;52.284;8.032;2022-11-15T05:20:37;12.50;99.90
7622;DHT22;3852;52.284;8.032;2022-11-15T05:23:03;12.50;99.90
7622;DHT22;3852;52.284;8.032;2022-11-15T05:25:31;12.50;99.90
7622;DHT22;3852;52.284;8.032;2022-11-15T05:27:57;12.50;99.90
7622;DHT22;3852;52.284;8.032;2022-11-15T05:30:23;12.50;99.90
7622;DHT22;3852;52.284;8.032;2022-11-15T05:32:49;12.50;99.90
7622;DHT22;3852;52.284;8.032;2022-11-15T05:35:22;12.50;99.90
7622;DHT22;3852;52.284;8.032;2022-11-15T05:37:56;12.40;99.90
7622;DHT22;3852;52.284;8.032;2022-11-15T05:40:22;12.50;99.90
7622;DHT22;3852;52.284;8.032;2022-11-15T05:42:49;12.60;99.90
7622;DHT22;3852;52.284;8.032;2022-11-15T05:45:15;12.60;99.90
7622;DHT22;3852;52.284;8.032;2022-11-15T05:47:41;12.70;99.90
7622;DHT22;3852;52.284;8.032;2022-11-15T05:50:11;12.60;99.90
7622;DHT22;3852;52.284;8.032;2022-11-15T05:52:38;12.80;99.90
7622;DHT22;3852;52.284;8.032;2022-11-15T05:55:05;12.70;99.90
7622;DHT22;3852;52.284;8.032;2022-11-15T05:57:31;12.60;99.90
7622;DHT22;3852;52.284;8.032;2022-11-15T05:59:58;12.70;99.90
7622;DHT22;3852;52.284;8.032;2022-11-15T06:02:24;12.80;99.90
7622;DHT22;3852;52.284;8.032;2022-11-15T06:04:49;12.80;99.90
7622;DHT22;3852;52.284;8.032;2022-11-15T06:07:15;12.70;99.90
7622;DHT22;3852;52.284;8.032;2022-11-15T06:09:41;12.70;99.90
7622;DHT22;3852;52.284;8.032;2022-11-15T06:12:07;12.70;99.90
7622;DHT22;3852;52.284;8.032;2022-11-15T06:14:32;12.70;99.90
7622;DHT22;3852;52.284;8.032;2022-11-15T06:16:58;12.70;99.90
7622;DHT22;3852;52.284;8.032;2022-11-15T06:19:24;12.70;99.90
7622;DHT22;3852;52.284;8.032;2022-11-15T06:21:50;12.70;99.90
7622;DHT22;3852;52.284;8.032;2022-11-15T06:24:16;12.70;99.90
7622;DHT22;3852;52.284;8.032;2022-11-15T06:26:41;12.80;99.90
7622;DHT22;3852;52.284;8.032;2022-11-15T06:29:07;12.80;99.90
7622;DHT22;3852;52.284;8.032;2022-11-15T06:31:34;12.70;99.90
7622;DHT22;3852;52.284;8.032;2022-11-15T06:34:00;12.80;99.90
7622;DHT22;3852;52.284;8.032;2022-11-15T06:36:26;12.80;99.90
7622;DHT22;3852;52.284;8.032;2022-11-15T06:38:52;12.70;99.90
7622;DHT22;3852;52.284;8.032;2022-11-15T06:41:17;12.80;99.90
7622;DHT22;3852;52.284;8.032;2022-11-15T06:43:44;12.70;99.90
7622;DHT22;3852;52.284;8.032;2022-11-15T06:46:10;12.70;99.90
7622;DHT22;3852;52.284;8.032;2022-11-15T06:48:36;12.80;99.90
7622;DHT22;3852;52.284;8.032;2022-11-15T06:51:03;12.80;99.90
7622;DHT22;3852;52.284;8.032;2022-11-15T06:53:30;12.70;99.90
7622;DHT22;3852;52.284;8.032;2022-11-15T06:56:06;12.70;99.90
7622;DHT22;3852;52.284;8.032;2022-11-15T06:58:33;12.60;99.90
7622;DHT22;3852;52.284;8.032;2022-11-15T07:01:07;12.60;99.90
7622;DHT22;3852;52.284;8.032;2022-11-15T07:03:40;12.60;99.90
7622;DHT22;3852;52.284;8.032;2022-11-15T07:06:07;12.60;99.90
7622;DHT22;3852;52.284;8.032;2022-11-15T07:08:35;12.70;99.90
7622;DHT22;3852;52.284;8.032;2022-11-15T07:11:03;12.70;99.90
7622;DHT22;3852;52.284;8.032;2022-11-15T07:13:33;12.70;99.90
7622;DHT22;3852;52.284;8.032;2022-11-15T07:16:08;12.80;99.90
7622;DHT22;3852;52.284;8.032;2022-11-15T07:18:38;12.80;99.90
7622;DHT22;3852;52.284;8.032;2022-11-15T07:21:07;12.80;99.90
7622;DHT22;3852;52.284;8.032;2022-11-15T07:23:36;12.80;99.90
7622;DHT22;3852;52.284;8.032;2022-11-15T07:26:03;12.90;99.90
7622;DHT22;3852;52.284;8.032;2022-11-15T07:28:29;12.90;99.90
7622;DHT22;3852;52.284;8.032;2022-11-15T07:30:55;12.90;99.90
7622;DHT22;3852;52.284;8.032;2022-11-15T07:33:21;13.00;99.90
7622;DHT22;3852;52.284;8.032;2022-11-15T07:35:47;12.90;99.90
7622;DHT22;3852;52.284;8.032;2022-11-15T07:38:17;12.90;99.90
7622;DHT22;3852;52.284;8.032;2022-11-15T07:40:46;12.90;99.90
7622;DHT22;3852;52.284;8.032;2022-11-15T07:43:12;12.90;99.90
7622;DHT22;3852;52.284;8.032;2022-11-15T07:45:43;13.00;99.90
7622;DHT22;3852;52.284;8.032;2022-11-15T07:48:10;13.00;99.90
7622;DHT22;3852;52.284;8.032;2022-11-15T07:50:36;13.00;99.90
7622;DHT22;3852;52.284;8.032;2022-11-15T07:53:02;13.00;99.90
7622;DHT22;3852;52.284;8.032;2022-11-15T07:55:28;13.00;99.90
7622;DHT22;3852;52.284;8.032;2022-11-15T07:58:06;13.00;99.90
7622;DHT22;3852;52.284;8.032;2022-11-15T08:00:33;13.00;99.90
7622;DHT22;3852;52.284;8.032;2022-11-15T08:03:11;13.00;99.90
7622;DHT22;3852;52.284;8.032;2022-11-15T08:05:40;13.00;99.90
7622;DHT22;3852;52.284;8.032;2022-11-15T08:08:08;13.00;99.90
7622;DHT22;3852;52.284;8.032;2022-11-15T08:10:35;13.00;99.90
7622;DHT22;3852;52.284;8.032;2022-11-15T08:13:04;13.10;99.90
7622;DHT22;3852;52.284;8.032;2022-11-15T08:15:36;13.10;99.90
7622;DHT22;3852;52.284;8.032;2022-11-15T08:18:05;13.10;99.90
7622;DHT22;3852;52.284;8.032;2022-11-15T08:20:34;13.20;99.90
7622;DHT22;3852;52.284;8.032;2022-11-15T08:23:02;13.20;99.90
7622;DHT22;3852;52.284;8.032;2022-11-15T08:25:30;13.20;99.90
7622;DHT22;3852;52.284;8.032;2022-11-15T08:28:02;13.10;99.90
7622;DHT22;3852;52.284;8.032;2022-11-15T08:30:29;13.20;99.90
7622;DHT22;3852;52.284;8.032;2022-11-15T08:32:57;13.20;99.90
7622;DHT22;3852;52.284;8.032;2022-11-15T08:35:24;13.10;99.90
7622;DHT22;3852;52.284;8.032;2022-11-15T08:37:52;13.10;99.90
7622;DHT22;3852;52.284;8.032;2022-11-15T08:40:18;13.10;99.90
7622;DHT22;3852;52.284;8.032;2022-11-15T08:42:48;13.10;99.90
7622;DHT22;3852;52.284;8.032;2022-11-15T08:45:14;13.10;99.90
7622;DHT22;3852;52.284;8.032;2022-11-15T08:47:40;13.20;99.90
7622;DHT22;3852;52.284;8.032;2022-11-15T08:50:06;13.20;99.90
7622;DHT22;3852;52.284;8.032;2022-11-15T08:52:33;13.20;99.90
7622;DHT22;3852;52.284;8.032;2022-11-15T08:54:58;13.20;99.90
7622;DHT22;3852;52.284;8.032;2022-11-15T08:57:24;13.20;99.90
7622;DHT22;3852;52.284;8.032;2022-11-15T08:59:50;13.30;99.90
7622;DHT22;3852;52.284;8.032;2022-11-15T09:02:16;13.30;99.90
7622;DHT22;3852;52.284;8.032;2022-11-15T09:04:43;13.40;99.90
7622;DHT22;3852;52.284;8.032;2022-11-15T09:07:10;13.40;99.90
7622;DHT22;3852;52.284;8.032;2022-11-15T09:09:37;13.40;99.90
7622;DHT22;3852;52.284;8.032;2022-11-15T09:12:04;13.50;99.90
7622;DHT22;3852;52.284;8.032;2022-11-15T09:14:31;13.50;99.90
7622;DHT22;3852;52.284;8.032;2022-11-15T09:16:57;13.60;99.90
7622;DHT22;3852;52.284;8.032;2022-11-15T09:19:23;13.60;99.90
7622;DHT22;3852;52.284;8.032;2022-11-15T09:21:49;13.70;99.90
7622;DHT22;3852;52.284;8.032;2022-11-15T09:24:15;13.70;99.90
7622;DHT22;3852;52.284;8.032;2022-11-15T09:26:42;13.70;99.90
7622;DHT22;3852;52.284;8.032;2022-11-15T09:29:09;13.60;99.90
7622;DHT22;3852;52.284;8.032;2022-11-15T09:31:35;13.60;99.90
7622;DHT22;3852;52.284;8.032;2022-11-15T09:34:00;13.70;99.90
7622;DHT22;3852;52.284;8.032;2022-11-15T09:36:26;13.60;99.90
7622;DHT22;3852;52.284;8.032;2022-11-15T09:38:52;13.60;99.90
7622;DHT22;3852;52.284;8.032;2022-11-15T09:49:57;13.70;99.90
7622;DHT22;3852;52.284;8.032;2022-11-15T09:52:25;13.80;99.90
7622;DHT22;3852;52.284;8.032;2022-11-15T09:54:51;13.90;99.90
7622;DHT22;3852;52.284;8.032;2022-11-15T09:57:54;14.00;99.90
7622;DHT22;3852;52.284;8.032;2022-11-15T10:00:37;14.00;99.90
7622;DHT22;3852;52.284;8.032;2022-11-15T10:03:17;14.00;99.90
7622;DHT22;3852;52.284;8.032;2022-11-15T10:05:50;14.00;99.90
7622;DHT22;3852;52.284;8.032;2022-11-15T10:08:42;14.00;99.90
7622;DHT22;3852;52.284;8.032;2022-11-15T10:11:22;14.00;99.90
7622;DHT22;3852;52.284;8.032;2022-11-15T10:13:51;14.00;99.90
7622;DHT22;3852;52.284;8.032;2022-11-15T10:21:37;14.10;99.90
7622;DHT22;3852;52.284;8.032;2022-11-15T10:24:12;14.20;99.90
7622;DHT22;3852;52.284;8.032;2022-11-15T10:26:44;14.10;99.90
7622;DHT22;3852;52.284;8.032;2022-11-15T10:29:20;14.20;99.90
7622;DHT22;3852;52.284;8.032;2022-11-15T10:31:48;14.20;99.90
7622;DHT22;3852;52.284;8.032;2022-11-15T10:34:17;14.20;99.90
7622;DHT22;3852;52.284;8.032;2022-11-15T10:36:55;14.30;99.90
7622;DHT22;3852;52.284;8.032;2022-11-15T10:39:23;14.30;99.90
7622;DHT22;3852;52.284;8.032;2022-11-15T10:41:50;14.30;99.90
7622;DHT22;3852;52.284;8.032;2022-11-15T10:46:44;14.30;99.90
7622;DHT22;3852;52.284;8.032;2022-11-15T10:49:27;14.30;99.90
7622;DHT22;3852;52.284;8.032;2022-11-15T10:54:44;14.30;99.90
7622;DHT22;3852;52.284;8.032;2022-11-15T10:57:21;14.30;99.90
7622;DHT22;3852;52.284;8.032;2022-11-15T10:59:54;14.30;99.90
7622;DHT22;3852;52.284;8.032;2022-11-15T11:05:06;14.40;99.90
7622;DHT22;3852;52.284;8.032;2022-11-15T11:08:23;14.50;99.90
7622;DHT22;3852;52.284;8.032;2022-11-15T11:10:57;14.60;99.90
7622;DHT22;3852;52.284;8.032;2022-11-15T11:13:29;14.60;99.90
7622;DHT22;3852;52.284;8.032;2022-11-15T11:31:20;14.60;99.90
7622;DHT22;3852;52.284;8.032;2022-11-15T11:37:11;14.50;99.90
7622;DHT22;3852;52.284;8.032;2022-11-15T11:39:53;14.50;99.90
7622;DHT22;3852;52.284;8.032;2022-11-15T11:48:44;14.60;99.90
7622;DHT22;3852;52.284;8.032;2022-11-15T11:51:23;14.70;99.90
7622;DHT22;3852;52.284;8.032;2022-11-15T11:54:03;14.70;99.90
7622;DHT22;3852;52.284;8.032;2022-11-15T11:56:37;14.70;99.90
7622;DHT22;3852;52.284;8.032;2022-11-15T11:59:37;14.70;99.90
7622;DHT22;3852;52.284;8.032;2022-11-15T12:02:27;14.70;99.90
7622;DHT22;3852;52.284;8.032;2022-11-15T12:05:04;14.70;99.90
7622;DHT22;3852;52.284;8.032;2022-11-15T12:07:36;14.90;99.90
7622;DHT22;3852;52.284;8.032;2022-11-15T12:10:15;15.00;99.90
7622;DHT22;3852;52.284;8.032;2022-11-15T12:13:11;15.00;99.90
7622;DHT22;3852;52.284;8.032;2022-11-15T12:18:46;14.90;99.90
7622;DHT22;3852;52.284;8.032;2022-11-15T12:21:21;14.90;99.90
7622;DHT22;3852;52.284;8.032;2022-11-15T12:24:08;14.90;99.90
7622;DHT22;3852;52.284;8.032;2022-11-15T12:26:48;15.00;99.90
7622;DHT22;3852;52.284;8.032;2022-11-15T12:29:43;15.00;99.90
7622;DHT22;3852;52.284;8.032;2022-11-15T12:32:34;15.00;99.90
7622;DHT22;3852;52.284;8.032;2022-11-15T12:35:04;15.00;99.90
7622;DHT22;3852;52.284;8.032;2022-11-15T12:42:55;15.10;99.90
7622;DHT22;3852;52.284;8.032;2022-11-15T12:45:42;15.10;99.90
7622;DHT22;3852;52.284;8.032;2022-11-15T12:50:55;15.20;99.90
7622;DHT22;3852;52.284;8.032;2022-11-15T13:07:00;15.20;99.90
7622;DHT22;3852;52.284;8.032;2022-11-15T13:15:01;15.10;99.90
7622;DHT22;3852;52.284;8.032;2022-11-15T13:17:54;15.10;99.90
7622;DHT22;3852;52.284;8.032;2022-11-15T13:20:29;15.20;99.90
7622;DHT22;3852;52.284;8.032;2022-11-15T13:23:14;15.10;99.90
7622;DHT22;3852;52.284;8.032;2022-11-15T13:31:27;15.10;99.90
7622;DHT22;3852;52.284;8.032;2022-11-15T13:34:25;15.10;99.90
7622;DHT22;3852;52.284;8.032;2022-11-15T13:36:54;15.10;99.90
7622;DHT22;3852;52.284;8.032;2022-11-15T13:39:32;15.10;99.90
7622;DHT22;3852;52.284;8.032;2022-11-15T13:41:59;15.10;99.90
7622;DHT22;3852;52.284;8.032;2022-11-15T13:44:28;15.10;99.90
7622;DHT22;3852;52.284;8.032;2022-11-15T13:47:02;15.10;99.90
7622;DHT22;3852;52.284;8.032;2022-11-15T13:49:48;15.10;99.90
7622;DHT22;3852;52.284;8.032;2022-11-15T13:52:15;15.10;99.90
7622;DHT22;3852;52.284;8.032;2022-11-15T13:54:51;15.10;99.90
7622;DHT22;3852;52.284;8.032;2022-11-15T14:00:32;15.00;99.90
7622;DHT22;3852;52.284;8.032;2022-11-15T14:08:42;15.00;99.90
7622;DHT22;3852;52.284;8.032;2022-11-15T14:11:24;15.00;99.90
7622;DHT22;3852;52.284;8.032;2022-11-15T14:19:34;15.00;99.90
7622;DHT22;3852;52.284;8.032;2022-11-15T14:22:21;14.90;99.90
7622;DHT22;3852;52.284;8.032;2022-11-15T14:25:18;14.80;99.90
7622;DHT22;3852;52.284;8.032;2022-11-15T14:28:10;14.80;99.90
7622;DHT22;3852;52.284;8.032;2022-11-15T14:30:48;14.80;99.90
7622;DHT22;3852;52.284;8.032;2022-11-15T14:33:34;14.70;99.90
7622;DHT22;3852;52.284;8.032;2022-11-15T14:36:04;14.70;99.90
7622;DHT22;3852;52.284;8.032;2022-11-15T14:38:36;14.70;99.90
7622;DHT22;3852;52.284;8.032;2022-11-15T14:41:02;14.70;99.90
7622;DHT22;3852;52.284;8.032;2022-11-15T14:43:28;14.60;99.90
7622;DHT22;3852;52.284;8.032;2022-11-15T14:45:54;14.60;99.90
7622;DHT22;3852;52.284;8.032;2022-11-15T14:48:20;14.60;99.90
7622;DHT22;3852;52.284;8.032;2022-11-15T14:50:47;14.60;99.90
7622;DHT22;3852;52.284;8.032;2022-11-15T14:53:15;14.50;99.90
7622;DHT22;3852;52.284;8.032;2022-11-15T14:55:44;14.50;99.90
7622;DHT22;3852;52.284;8.032;2022-11-15T14:58:10;14.40;99.90
7622;DHT22;3852;52.284;8.032;2022-11-15T15:00:38;14.40;99.90
7622;DHT22;3852;52.284;8.032;2022-11-15T15:03:05;14.40;99.90
7622;DHT22;3852;52.284;8.032;2022-11-15T15:05:40;14.40;99.90
7622;DHT22;3852;52.284;8.032;2022-11-15T15:08:08;14.30;99.90
7622;DHT22;3852;52.284;8.032;2022-11-15T15:10:37;14.30;99.90
7622;DHT22;3852;52.284;8.032;2022-11-15T15:13:22;14.30;99.90
7622;DHT22;3852;52.284;8.032;2022-11-15T15:15:50;14.20;99.90
7622;DHT22;3852;52.284;8.032;2022-11-15T15:18:17;14.20;99.90
7622;DHT22;3852;52.284;8.032;2022-11-15T15:20:54;14.20;99.90
7622;DHT22;3852;52.284;8.032;2022-11-15T15:23:22;14.10;99.90
7622;DHT22;3852;52.284;8.032;2022-11-15T15:25:50;14.10;99.90
7622;DHT22;3852;52.284;8.032;2022-11-15T15:28:18;14.00;99.90
7622;DHT22;3852;52.284;8.032;2022-11-15T15:30:43;14.10;99.90
7622;DHT22;3852;52.284;8.032;2022-11-15T15:33:09;14.00;99.90
7622;DHT22;3852;52.284;8.032;2022-11-15T15:35:35;13.80;99.90
7622;DHT22;3852;52.284;8.032;2022-11-15T15:38:01;13.90;99.90
7622;DHT22;3852;52.284;8.032;2022-11-15T15:40:29;13.80;99.90
7622;DHT22;3852;52.284;8.032;2022-11-15T15:42:56;13.80;99.90
7622;DHT22;3852;52.284;8.032;2022-11-15T15:45:22;13.50;99.90
7622;DHT22;3852;52.284;8.032;2022-11-15T15:47:50;13.30;99.90
7622;DHT22;3852;52.284;8.032;2022-11-15T15:50:35;13.10;99.90
7622;DHT22;3852;52.284;8.032;2022-11-15T15:53:03;13.10;99.90
7622;DHT22;3852;52.284;8.032;2022-11-15T15:55:29;13.10;99.90
7622;DHT22;3852;52.284;8.032;2022-11-15T15:57:55;13.00;99.90
7622;DHT22;3852;52.284;8.032;2022-11-15T16:00:23;13.10;99.90
7622;DHT22;3852;52.284;8.032;2022-11-15T16:02:51;13.00;99.90
7622;DHT22;3852;52.284;8.032;2022-11-15T16:05:18;12.90;99.90
7622;DHT22;3852;52.284;8.032;2022-11-15T16:07:44;12.70;99.90
7622;DHT22;3852;52.284;8.032;2022-11-15T16:10:29;12.60;99.90
7622;DHT22;3852;52.284;8.032;2022-11-15T16:12:57;12.60;99.90
7622;DHT22;3852;52.284;8.032;2022-11-15T16:15:27;12.50;99.90
7622;DHT22;3852;52.284;8.032;2022-11-15T16:17:57;12.50;99.90
7622;DHT22;3852;52.284;8.032;2022-11-15T16:20:37;12.40;99.90
7622;DHT22;3852;52.284;8.032;2022-11-15T16:23:10;12.50;99.90
7622;DHT22;3852;52.284;8.032;2022-11-15T16:25:47;12.50;99.90
7622;DHT22;3852;52.284;8.032;2022-11-15T16:28:17;12.50;99.90
7622;DHT22;3852;52.284;8.032;2022-11-15T16:31:08;12.40;99.90
7622;DHT22;3852;52.284;8.032;2022-11-15T16:33:35;12.30;99.90
7622;DHT22;3852;52.284;8.032;2022-11-15T16:36:03;12.30;99.90
7622;DHT22;3852;52.284;8.032;2022-11-15T16:38:30;12.20;99.90
7622;DHT22;3852;52.284;8.032;2022-11-15T16:40:56;12.20;99.90
7622;DHT22;3852;52.284;8.032;2022-11-15T16:43:22;12.20;99.90
7622;DHT22;3852;52.284;8.032;2022-11-15T16:45:49;12.30;99.90
7622;DHT22;3852;52.284;8.032;2022-11-15T16:48:26;12.30;99.90
7622;DHT22;3852;52.284;8.032;2022-11-15T16:50:57;12.40;99.90
7622;DHT22;3852;52.284;8.032;2022-11-15T16:53:24;12.30;99.90
7622;DHT22;3852;52.284;8.032;2022-11-15T16:55:51;12.30;99.90
7622;DHT22;3852;52.284;8.032;2022-11-15T16:58:17;12.30;99.90
7622;DHT22;3852;52.284;8.032;2022-11-15T17:00:43;12.20;99.90
7622;DHT22;3852;52.284;8.032;2022-11-15T17:03:08;12.00;99.90
7622;DHT22;3852;52.284;8.032;2022-11-15T17:05:34;11.90;99.90
7622;DHT22;3852;52.284;8.032;2022-11-15T17:08:00;11.90;99.90
7622;DHT22;3852;52.284;8.032;2022-11-15T17:10:26;11.80;99.90
7622;DHT22;3852;52.284;8.032;2022-11-15T17:12:54;11.70;99.90
7622;DHT22;3852;52.284;8.032;2022-11-15T17:15:21;11.70;99.90
7622;DHT22;3852;52.284;8.032;2022-11-15T17:17:52;11.60;99.90
7622;DHT22;3852;52.284;8.032;2022-11-15T17:20:20;11.50;99.90
7622;DHT22;3852;52.284;8.032;2022-11-15T17:22:47;11.40;99.90
7622;DHT22;3852;52.284;8.032;2022-11-15T17:25:13;11.40;99.90
7622;DHT22;3852;52.284;8.032;2022-11-15T17:27:39;11.30;99.90
7622;DHT22;3852;52.284;8.032;2022-11-15T17:30:06;11.20;99.90
7622;DHT22;3852;52.284;8.032;2022-11-15T17:32:35;11.20;99.90
7622;DHT22;3852;52.284;8.032;2022-11-15T17:35:02;11.10;99.90
7622;DHT22;3852;52.284;8.032;2022-11-15T17:37:28;11.10;99.90
7622;DHT22;3852;52.284;8.032;2022-11-15T17:39:54;11.10;99.90
7622;DHT22;3852;52.284;8.032;2022-11-15T17:42:20;11.00;99.90
7622;DHT22;3852;52.284;8.032;2022-11-15T17:44:46;11.00;99.90
7622;DHT22;3852;52.284;8.032;2022-11-15T17:47:11;11.00;99.90
7622;DHT22;3852;52.284;8.032;2022-11-15T17:49:37;10.90;99.90
7622;DHT22;3852;52.284;8.032;2022-11-15T17:52:05;10.90;99.90
7622;DHT22;3852;52.284;8.032;2022-11-15T17:54:32;10.80;99.90
7622;DHT22;3852;52.284;8.032;2022-11-15T17:56:58;10.80;99.90
7622;DHT22;3852;52.284;8.032;2022-11-15T17:59:24;10.90;99.90
7622;DHT22;3852;52.284;8.032;2022-11-15T18:01:50;11.00;99.90
7622;DHT22;3852;52.284;8.032;2022-11-15T18:04:18;11.00;99.90
7622;DHT22;3852;52.284;8.032;2022-11-15T18:06:44;11.20;99.90
7622;DHT22;3852;52.284;8.032;2022-11-15T18:09:12;11.30;99.90
7622;DHT22;3852;52.284;8.032;2022-11-15T18:11:40;11.40;99.90
7622;DHT22;3852;52.284;8.032;2022-11-15T18:14:12;11.40;99.90
7622;DHT22;3852;52.284;8.032;2022-11-15T18:16:39;11.90;99.90
7622;DHT22;3852;52.284;8.032;2022-11-15T18:19:06;11.90;99.90
7622;DHT22;3852;52.284;8.032;2022-11-15T18:21:43;12.10;99.90
7622;DHT22;3852;52.284;8.032;2022-11-15T18:24:32;12.20;99.90
7622;DHT22;3852;52.284;8.032;2022-11-15T18:27:01;12.40;99.90
7622;DHT22;3852;52.284;8.032;2022-11-15T18:29:28;12.50;99.90